Time;durP1;ratioP1;P1;durP2;ratioP2;P2;SDS_P1;SDS_P2;PMS_P1;PMS_P2;Temp;Humidity;BMP_temperature;BMP_pressure;BME280_temperature;BME280_humidity;BME280_pressure;Samples;Min_cycle;Max_cycle;Signal;HPM_P1;HPM_P2
2023/11/09 00:01:09;;;;;;;1.13;0.97;;;;;;;;;;5131619;28;20203;-79
2023/11/09 00:03:36;;;;;;;0.73;0.73;;;;;;;;;;5125014;28;20332;-80
2023/11/09 00:06:05;;;;;;;1.13;1.13;;;;;;;;;;5123528;28;20206;-79
2023/11/09 00:08:31;;;;;;;1.30;1.30;;;;;;;;;;5131366;28;20672;-80
2023/11/09 00:10:59;;;;;;;1.10;1.10;;;;;;;;;;5130816;28;20230;-79
2023/11/09 00:13:26;;;;;;;1.10;1.10;;;;;;;;;;5131355;27;20708;-80
2023/11/09 00:15:55;;;;;;;1.40;1.33;;;;;;;;;;5131017;28;20210;-79
2023/11/09 00:18:22;;;;;;;1.47;1.20;;;;;;;;;;5104839;28;20230;-79
2023/11/09 00:20:49;;;;;;;1.13;1.10;;;;;;;;;;5131124;28;20202;-79
2023/11/09 00:23:24;;;;;;;0.97;0.97;;;;;;;;;;5116758;28;20211;-80
2023/11/09 00:25:52;;;;;;;1.27;1.20;;;;;;;;;;5120291;28;20202;-80
2023/11/09 00:28:19;;;;;;;0.93;0.93;;;;;;;;;;5131152;28;20195;-80
2023/11/09 00:30:46;;;;;;;1.03;1.03;;;;;;;;;;5130874;27;20763;-81
2023/11/09 00:33:13;;;;;;;1.00;1.00;;;;;;;;;;5131034;28;20223;-80
2023/11/09 00:35:40;;;;;;;0.90;0.90;;;;;;;;;;5117250;28;20239;-80
2023/11/09 00:38:08;;;;;;;1.00;1.00;;;;;;;;;;5131103;28;20252;-81
2023/11/09 00:40:37;;;;;;;1.10;1.10;;;;;;;;;;5130613;28;20248;-80
2023/11/09 00:43:04;;;;;;;1.10;1.10;;;;;;;;;;5131605;27;20222;-80
2023/11/09 00:45:34;;;;;;;1.47;0.97;;;;;;;;;;5130970;27;20204;-80
2023/11/09 00:48:02;;;;;;;1.90;1.00;;;;;;;;;;5114612;28;20199;-80
2023/11/09 00:50:29;;;;;;;1.00;1.00;;;;;;;;;;5113869;28;20199;-81
2023/11/09 00:52:56;;;;;;;0.97;0.97;;;;;;;;;;5125751;27;20609;-81
2023/11/09 00:55:23;;;;;;;0.93;0.93;;;;;;;;;;5134357;27;20210;-80
2023/11/09 00:57:51;;;;;;;1.10;1.10;;;;;;;;;;5123104;27;20199;-80
2023/11/09 01:00:18;;;;;;;0.80;0.80;;;;;;;;;;5132983;27;20589;-80
2023/11/09 01:02:48;;;;;;;0.90;0.90;;;;;;;;;;5134505;27;20577;-80
2023/11/09 01:05:15;;;;;;;1.20;1.10;;;;;;;;;;5120468;27;20199;-80
2023/11/09 01:07:42;;;;;;;0.97;0.97;;;;;;;;;;5134722;27;20206;-80
2023/11/09 01:10:09;;;;;;;2.47;1.20;;;;;;;;;;5133361;27;20198;-80
2023/11/09 01:12:36;;;;;;;1.00;1.00;;;;;;;;;;5134720;27;20230;-80
2023/11/09 01:15:05;;;;;;;0.90;0.90;;;;;;;;;;5107290;27;20205;-80
2023/11/09 01:17:32;;;;;;;1.10;1.10;;;;;;;;;;5133861;27;20202;-81
2023/11/09 01:19:59;;;;;;;0.90;0.90;;;;;;;;;;5134252;27;20195;-80
2023/11/09 01:22:26;;;;;;;1.23;1.10;;;;;;;;;;5133689;27;20211;-80
2023/11/09 01:24:53;;;;;;;0.87;0.87;;;;;;;;;;5134347;27;20203;-80
2023/11/09 01:27:19;;;;;;;1.07;1.07;;;;;;;;;;5134101;27;20206;-80
2023/11/09 01:29:46;;;;;;;1.00;1.00;;;;;;;;;;5133853;27;20207;-80
2023/11/09 01:32:15;;;;;;;1.10;1.10;;;;;;;;;;5134032;27;20222;-80
2023/11/09 01:34:42;;;;;;;1.93;1.10;;;;;;;;;;5133230;27;20203;-80
2023/11/09 01:37:10;;;;;;;1.17;1.17;;;;;;;;;;5131809;27;20748;-80
2023/11/09 01:39:38;;;;;;;0.87;0.87;;;;;;;;;;5122389;27;20221;-81
2023/11/09 01:42:05;;;;;;;1.10;1.10;;;;;;;;;;5133551;27;20203;-80
2023/11/09 01:44:33;;;;;;;1.00;1.00;;;;;;;;;;5133748;27;20710;-80
2023/11/09 01:47:00;;;;;;;3.33;1.40;;;;;;;;;;5131546;27;20203;-80
2023/11/09 01:49:30;;;;;;;0.93;0.93;;;;;;;;;;5121785;27;20213;-80
2023/11/09 01:51:56;;;;;;;1.13;1.13;;;;;;;;;;5130502;27;20212;-80
2023/11/09 01:54:23;;;;;;;1.10;1.10;;;;;;;;;;5121535;27;20203;-80
2023/11/09 01:56:51;;;;;;;0.90;0.90;;;;;;;;;;5132590;27;20251;-80
2023/11/09 01:59:18;;;;;;;4.13;1.20;;;;;;;;;;5133511;27;20592;-80
2023/11/09 02:01:45;;;;;;;1.00;1.00;;;;;;;;;;5133478;27;20191;-79
2023/11/09 02:04:12;;;;;;;1.20;1.10;;;;;;;;;;5133710;27;20198;-80
2023/11/09 02:06:41;;;;;;;3.23;1.00;;;;;;;;;;5133609;27;20222;-80
2023/11/09 02:09:08;;;;;;;0.93;0.93;;;;;;;;;;5133549;27;20199;-79
2023/11/09 02:11:35;;;;;;;1.30;1.20;;;;;;;;;;5133062;27;20226;-79
2023/11/09 02:14:02;;;;;;;0.90;0.90;;;;;;;;;;5132955;27;20226;-79
2023/11/09 02:16:28;;;;;;;0.80;0.80;;;;;;;;;;5119333;27;20685;-79
2023/11/09 02:18:55;;;;;;;1.00;1.00;;;;;;;;;;5132797;27;20681;-80
2023/11/09 02:21:23;;;;;;;1.03;1.00;;;;;;;;;;5132693;27;20569;-80
2023/11/09 02:23:52;;;;;;;1.00;1.00;;;;;;;;;;5132370;27;20669;-79
2023/11/09 02:26:20;;;;;;;0.90;0.90;;;;;;;;;;5132802;27;20206;-80
2023/11/09 02:28:47;;;;;;;1.13;1.10;;;;;;;;;;5132969;27;20195;-79
2023/11/09 02:31:14;;;;;;;1.00;1.00;;;;;;;;;;5122997;27;20200;-79
2023/11/09 02:33:40;;;;;;;0.83;0.83;;;;;;;;;;5126592;27;20720;-79
2023/11/09 02:36:08;;;;;;;4.00;1.17;;;;;;;;;;5124254;27;20214;-79
2023/11/09 02:38:35;;;;;;;1.30;1.20;;;;;;;;;;5128395;27;20206;-80
2023/11/09 02:41:06;;;;;;;1.00;1.00;;;;;;;;;;5132663;27;20198;-80
2023/11/09 02:43:39;;;;;;;1.00;1.00;;;;;;;;;;5121456;27;20215;-80
2023/11/09 02:46:06;;;;;;;0.83;0.83;;;;;;;;;;5130936;27;20281;-81
2023/11/09 02:48:33;;;;;;;1.10;1.10;;;;;;;;;;5132963;27;20222;-80
2023/11/09 02:51:02;;;;;;;1.97;1.03;;;;;;;;;;5131803;27;20676;-80
2023/11/09 02:53:29;;;;;;;0.83;0.83;;;;;;;;;;5132330;27;20226;-79
2023/11/09 02:55:56;;;;;;;1.77;1.67;;;;;;;;;;5131858;27;20202;-80
2023/11/09 02:58:23;;;;;;;0.90;0.90;;;;;;;;;;5132295;27;20207;-80
2023/11/09 03:00:51;;;;;;;0.93;0.93;;;;;;;;;;5132263;27;20293;-80
2023/11/09 03:03:18;;;;;;;0.93;0.93;;;;;;;;;;5132433;27;20210;-80
2023/11/09 03:05:44;;;;;;;1.53;0.90;;;;;;;;;;5131771;27;20202;-81
2023/11/09 03:08:11;;;;;;;1.03;0.90;;;;;;;;;;5132151;27;20199;-80
2023/11/09 03:10:38;;;;;;;0.90;0.90;;;;;;;;;;5124491;27;20613;-77
2023/11/09 03:13:06;;;;;;;1.03;0.97;;;;;;;;;;5122053;27;20215;-78
2023/11/09 03:15:33;;;;;;;2.27;1.33;;;;;;;;;;5131802;27;20199;-78
2023/11/09 03:18:02;;;;;;;0.90;0.90;;;;;;;;;;5131986;27;20207;-79
2023/11/09 03:20:29;;;;;;;1.37;1.00;;;;;;;;;;5131298;27;20202;-79
2023/11/09 03:22:56;;;;;;;1.47;1.37;;;;;;;;;;5131847;27;20198;-78
2023/11/09 03:25:22;;;;;;;1.73;1.63;;;;;;;;;;5117571;27;20285;-78
2023/11/09 03:27:50;;;;;;;2.27;2.17;;;;;;;;;;5131665;27;20210;-79
2023/11/09 03:30:17;;;;;;;1.90;1.80;;;;;;;;;;5130919;27;20205;-81
2023/11/09 03:32:43;;;;;;;1.53;1.43;;;;;;;;;;5115035;27;20218;-79
2023/11/09 03:35:13;;;;;;;1.27;1.27;;;;;;;;;;5118510;27;20205;-84
2023/11/09 03:37:42;;;;;;;1.20;1.20;;;;;;;;;;5131792;27;20205;-83
2023/11/09 03:40:10;;;;;;;1.00;1.00;;;;;;;;;;5131763;27;20209;-85
2023/11/09 03:42:37;;;;;;;1.10;1.10;;;;;;;;;;5131825;27;20206;-85
2023/11/09 03:45:05;;;;;;;1.20;1.10;;;;;;;;;;5131733;28;20207;-84
2023/11/09 03:47:32;;;;;;;1.07;1.07;;;;;;;;;;5118240;28;20203;-84
2023/11/09 03:49:59;;;;;;;1.47;1.37;;;;;;;;;;5128809;28;20207;-83
2023/11/09 03:52:27;;;;;;;0.80;0.80;;;;;;;;;;5120654;28;20203;-84
2023/11/09 03:54:54;;;;;;;1.07;1.07;;;;;;;;;;5127709;28;20206;-84
2023/11/09 03:57:22;;;;;;;1.13;1.10;;;;;;;;;;5122170;28;20215;-83
2023/11/09 03:59:49;;;;;;;1.30;1.30;;;;;;;;;;5126492;28;20234;-84
2023/11/09 04:02:16;;;;;;;1.70;1.57;;;;;;;;;;5120193;28;20207;-83
2023/11/09 04:04:43;;;;;;;1.00;1.00;;;;;;;;;;5131232;28;20198;-84
2023/11/09 04:07:09;;;;;;;1.60;1.10;;;;;;;;;;5122638;28;20195;-84
2023/11/09 04:09:38;;;;;;;1.60;1.50;;;;;;;;;;5125181;28;20210;-83
2023/11/09 04:12:05;;;;;;;1.33;1.27;;;;;;;;;;5120319;28;20222;-84
2023/11/09 04:14:32;;;;;;;1.90;1.80;;;;;;;;;;5131310;28;20262;-83
2023/11/09 04:16:59;;;;;;;1.60;1.50;;;;;;;;;;5131743;28;20221;-84
2023/11/09 04:19:25;;;;;;;1.70;1.60;;;;;;;;;;5134550;27;20586;-84
2023/11/09 04:21:53;;;;;;;1.33;1.20;;;;;;;;;;5130340;27;20198;-79
2023/11/09 04:24:20;;;;;;;1.10;1.10;;;;;;;;;;5135393;27;20251;-82
2023/11/09 04:26:48;;;;;;;2.17;1.37;;;;;;;;;;5132019;27;20285;-82
2023/11/09 04:29:15;;;;;;;1.53;1.43;;;;;;;;;;5135186;27;20202;-82
2023/11/09 04:31:47;;;;;;;4.23;1.70;;;;;;;;;;5126250;27;20669;-81
2023/11/09 04:34:14;;;;;;;1.53;1.43;;;;;;;;;;5135208;27;20321;-81
2023/11/09 04:36:43;;;;;;;1.40;1.30;;;;;;;;;;5134460;27;20564;-81
2023/11/09 04:39:10;;;;;;;1.60;1.50;;;;;;;;;;5134498;27;20210;-82
2023/11/09 04:41:37;;;;;;;1.57;1.47;;;;;;;;;;5121519;27;20202;-81
2023/11/09 04:44:11;;;;;;;1.30;1.00;;;;;;;;;;5134068;27;20677;-81
2023/11/09 04:46:41;;;;;;;2.30;1.20;;;;;;;;;;5123315;27;20190;-81
2023/11/09 04:49:08;;;;;;;1.20;1.10;;;;;;;;;;5132825;27;20203;-80
2023/11/09 04:51:35;;;;;;;0.90;0.90;;;;;;;;;;5133632;27;20205;-81
2023/11/09 04:54:07;;;;;;;1.20;1.10;;;;;;;;;;5132904;27;20226;-81
2023/11/09 04:56:53;;;;;;;0.97;0.97;;;;;;;;;;5133156;27;20203;-81
2023/11/09 05:07:42;;;;;;;0.80;0.80;;;;;;;;;;5121253;27;20203;-81
2023/11/09 05:10:09;;;;;;;0.97;0.97;;;;;;;;;;5134233;27;20203;-81
2023/11/09 05:12:36;;;;;;;0.93;0.93;;;;;;;;;;5134938;27;20292;-81
2023/11/09 05:15:06;;;;;;;0.80;0.80;;;;;;;;;;5133833;27;20233;-81
2023/11/09 05:17:32;;;;;;;1.03;0.90;;;;;;;;;;5133429;27;20238;-81
2023/11/09 05:20:05;;;;;;;3.63;3.30;;;;;;;;;;5121824;27;20210;-81
2023/11/09 05:22:31;;;;;;;2.70;2.50;;;;;;;;;;5133755;27;20205;-81
2023/11/09 05:24:58;;;;;;;2.40;2.10;;;;;;;;;;5134297;27;20191;-81
2023/11/09 05:27:26;;;;;;;3.03;1.80;;;;;;;;;;5133825;27;20203;-81
2023/11/09 05:29:53;;;;;;;0.83;0.83;;;;;;;;;;5134051;27;20206;-81
2023/11/09 05:32:21;;;;;;;2.47;1.10;;;;;;;;;;5133766;27;20210;-81
2023/11/09 05:34:51;;;;;;;1.27;0.73;;;;;;;;;;5133978;27;20696;-81
2023/11/09 05:37:17;;;;;;;1.20;1.10;;;;;;;;;;5133325;27;20195;-81
2023/11/09 05:39:46;;;;;;;2.43;1.63;;;;;;;;;;5133239;27;20677;-81
2023/11/09 05:42:13;;;;;;;3.07;1.77;;;;;;;;;;5133562;27;20210;-81
2023/11/09 05:44:40;;;;;;;1.70;1.60;;;;;;;;;;5122500;27;20612;-81
2023/11/09 05:47:06;;;;;;;1.33;1.23;;;;;;;;;;5131387;27;20195;-81
2023/11/09 05:49:35;;;;;;;1.33;1.23;;;;;;;;;;5133713;27;20210;-82
2023/11/09 05:52:05;;;;;;;1.33;0.90;;;;;;;;;;5128504;27;20206;-82
2023/11/09 05:54:31;;;;;;;10.43;5.20;;;;;;;;;;5125008;27;20602;-81
2023/11/09 05:56:58;;;;;;;8.23;5.90;;;;;;;;;;5133746;27;20206;-81
2023/11/09 05:59:25;;;;;;;6.93;5.60;;;;;;;;;;5133611;27;20202;-81
2023/11/09 06:01:52;;;;;;;3.53;2.83;;;;;;;;;;5132742;27;20208;-81
2023/11/09 06:04:19;;;;;;;1.67;1.20;;;;;;;;;;5133348;27;20195;-81
2023/11/09 06:06:47;;;;;;;2.17;1.30;;;;;;;;;;5132760;27;20605;-81
2023/11/09 06:09:15;;;;;;;1.20;0.93;;;;;;;;;;5132991;27;20205;-81
2023/11/09 06:11:46;;;;;;;1.07;1.00;;;;;;;;;;5132983;27;20230;-81
2023/11/09 06:14:15;;;;;;;1.00;1.00;;;;;;;;;;5133352;27;20239;-82
2023/11/09 06:16:43;;;;;;;0.90;0.90;;;;;;;;;;5133090;27;20198;-81
2023/11/09 06:19:10;;;;;;;0.80;0.80;;;;;;;;;;5132461;27;20247;-81
2023/11/09 06:21:37;;;;;;;0.80;0.80;;;;;;;;;;5133138;27;20719;-81
2023/11/09 06:24:07;;;;;;;0.60;0.60;;;;;;;;;;5132785;27;20202;-80
2023/11/09 06:26:35;;;;;;;1.97;0.90;;;;;;;;;;5132862;27;20238;-81
2023/11/09 06:29:05;;;;;;;0.93;0.93;;;;;;;;;;5132578;27;20207;-80
2023/11/09 06:31:31;;;;;;;0.70;0.70;;;;;;;;;;5132476;27;20191;-81
2023/11/09 06:34:01;;;;;;;1.70;0.77;;;;;;;;;;5132615;27;21657;-81
2023/11/09 06:36:28;;;;;;;0.90;0.90;;;;;;;;;;5132943;27;20213;-81
2023/11/09 06:38:55;;;;;;;1.40;0.90;;;;;;;;;;5132342;27;20277;-81
2023/11/09 06:41:27;;;;;;;1.93;1.83;;;;;;;;;;5132094;27;20203;-81
2023/11/09 06:43:54;;;;;;;0.70;0.70;;;;;;;;;;5132963;27;20293;-81
2023/11/09 06:46:21;;;;;;;0.90;0.90;;;;;;;;;;5120691;27;20211;-81
2023/11/09 06:48:48;;;;;;;1.17;0.97;;;;;;;;;;5130604;27;20203;-81
2023/11/09 06:51:15;;;;;;;0.90;0.90;;;;;;;;;;5132931;27;20199;-81
2023/11/09 06:53:42;;;;;;;1.10;0.90;;;;;;;;;;5132451;27;20233;-81
2023/11/09 06:56:09;;;;;;;3.40;1.67;;;;;;;;;;5132010;27;20210;-81
2023/11/09 06:58:37;;;;;;;1.63;1.50;;;;;;;;;;5132240;27;20195;-81
2023/11/09 07:01:04;;;;;;;2.50;1.50;;;;;;;;;;5132306;27;20207;-81
2023/11/09 07:03:31;;;;;;;1.00;1.00;;;;;;;;;;5132498;27;20195;-81
2023/11/09 07:05:58;;;;;;;0.90;0.87;;;;;;;;;;5131866;27;20202;-81
2023/11/09 07:08:28;;;;;;;1.70;1.20;;;;;;;;;;5132414;27;20202;-81
2023/11/09 07:10:55;;;;;;;1.60;1.20;;;;;;;;;;5132384;27;20198;-81
2023/11/09 07:13:22;;;;;;;1.20;1.10;;;;;;;;;;5131488;27;20234;-81
2023/11/09 07:15:50;;;;;;;0.80;0.80;;;;;;;;;;5132252;27;20199;-81
2023/11/09 07:18:17;;;;;;;1.47;0.90;;;;;;;;;;5105405;27;20206;-81
2023/11/09 07:20:44;;;;;;;0.80;0.80;;;;;;;;;;5131481;27;20199;-81
2023/11/09 07:23:14;;;;;;;1.93;0.80;;;;;;;;;;5124931;27;20206;-81
2023/11/09 07:25:42;;;;;;;1.30;1.20;;;;;;;;;;5126023;27;20282;-82
2023/11/09 07:28:09;;;;;;;1.50;1.10;;;;;;;;;;5132277;27;20206;-82
2023/11/09 07:30:36;;;;;;;1.07;0.90;;;;;;;;;;5117572;27;20211;-82
2023/11/09 07:33:04;;;;;;;3.20;0.93;;;;;;;;;;5131885;27;20673;-82
2023/11/09 07:35:31;;;;;;;1.37;1.00;;;;;;;;;;5131648;27;20603;-82
2023/11/09 07:37:58;;;;;;;1.13;1.03;;;;;;;;;;5131760;27;20203;-82
2023/11/09 07:40:27;;;;;;;1.00;1.00;;;;;;;;;;5130885;27;20206;-82
2023/11/09 07:42:54;;;;;;;1.30;1.27;;;;;;;;;;5132024;27;20677;-82
2023/11/09 07:45:22;;;;;;;1.93;1.53;;;;;;;;;;5131271;27;20198;-82
2023/11/09 07:47:48;;;;;;;4.63;3.77;;;;;;;;;;5131866;27;20222;-81
2023/11/09 07:50:17;;;;;;;2.30;1.10;;;;;;;;;;5131548;28;20206;-82
2023/11/09 07:52:44;;;;;;;1.00;0.90;;;;;;;;;;5132259;27;20199;-82
2023/11/09 07:55:12;;;;;;;0.90;0.90;;;;;;;;;;5135781;27;20230;-82
2023/11/09 07:57:39;;;;;;;3.70;0.93;;;;;;;;;;5135634;27;20687;-82
2023/11/09 08:00:11;;;;;;;1.87;1.73;;;;;;;;;;5134963;27;20255;-82
2023/11/09 08:02:38;;;;;;;2.90;1.67;;;;;;;;;;5135982;27;20238;-82
2023/11/09 08:05:06;;;;;;;1.00;1.00;;;;;;;;;;5135019;27;20191;-82
2023/11/09 08:07:35;;;;;;;1.17;1.03;;;;;;;;;;5135879;27;20202;-82
2023/11/09 08:10:06;;;;;;;1.00;0.90;;;;;;;;;;5135011;27;20197;-82
2023/11/09 08:12:33;;;;;;;1.07;0.73;;;;;;;;;;5135701;27;20253;-82
2023/11/09 08:15:00;;;;;;;0.87;0.87;;;;;;;;;;5135258;27;20219;-82
2023/11/09 08:17:28;;;;;;;1.00;1.00;;;;;;;;;;5135449;27;20202;-82
2023/11/09 08:19:54;;;;;;;1.70;0.97;;;;;;;;;;5135186;27;20202;-80
2023/11/09 08:22:21;;;;;;;2.57;1.13;;;;;;;;;;5135710;27;20202;-82
2023/11/09 08:24:49;;;;;;;2.33;1.03;;;;;;;;;;5135217;27;20195;-82
2023/11/09 08:27:16;;;;;;;1.20;1.10;;;;;;;;;;5134861;27;20205;-82
2023/11/09 08:29:43;;;;;;;2.20;1.37;;;;;;;;;;5135377;27;20195;-82
2023/11/09 08:32:10;;;;;;;5.00;2.13;;;;;;;;;;5135256;27;20202;-81
2023/11/09 08:34:37;;;;;;;1.20;1.07;;;;;;;;;;5135356;27;20219;-82
2023/11/09 08:37:06;;;;;;;3.90;1.27;;;;;;;;;;5121011;27;20196;-81
2023/11/09 08:39:33;;;;;;;0.77;0.70;;;;;;;;;;5134957;27;20199;-81
2023/11/09 08:42:03;;;;;;;0.80;0.80;;;;;;;;;;5134973;27;20612;-82
2023/11/09 08:44:30;;;;;;;1.33;0.77;;;;;;;;;;5134616;27;20198;-82
2023/11/09 08:46:57;;;;;;;0.73;0.73;;;;;;;;;;5134860;27;20202;-81
2023/11/09 08:49:24;;;;;;;0.70;0.70;;;;;;;;;;5134978;27;20259;-82
2023/11/09 08:51:50;;;;;;;2.67;1.23;;;;;;;;;;5134304;27;20205;-81
2023/11/09 08:54:17;;;;;;;1.43;0.60;;;;;;;;;;5134328;27;20218;-81
2023/11/09 08:56:46;;;;;;;0.90;0.90;;;;;;;;;;5134633;27;20252;-81
2023/11/09 08:59:14;;;;;;;1.50;1.00;;;;;;;;;;5134990;27;20203;-82
2023/11/09 09:01:41;;;;;;;1.53;1.40;;;;;;;;;;5133613;27;20202;-81
2023/11/09 09:04:08;;;;;;;1.50;1.40;;;;;;;;;;5134442;27;20206;-81
2023/11/09 09:06:35;;;;;;;1.33;1.20;;;;;;;;;;5134258;27;20216;-82
2023/11/09 09:09:04;;;;;;;1.33;1.23;;;;;;;;;;5134060;27;20222;-81
2023/11/09 09:11:32;;;;;;;3.27;1.20;;;;;;;;;;5134778;27;20233;-82
2023/11/09 09:13:59;;;;;;;2.03;1.20;;;;;;;;;;5134329;27;20198;-81
2023/11/09 09:16:28;;;;;;;1.60;1.50;;;;;;;;;;5133695;27;20641;-82
2023/11/09 09:18:55;;;;;;;1.53;1.00;;;;;;;;;;5134355;27;20203;-82
2023/11/09 09:21:23;;;;;;;1.77;1.27;;;;;;;;;;5134129;27;20225;-82
2023/11/09 09:23:51;;;;;;;1.40;1.30;;;;;;;;;;5134107;27;20203;-81
2023/11/09 09:26:17;;;;;;;1.70;1.20;;;;;;;;;;5120062;27;20199;-81
2023/11/09 09:28:47;;;;;;;2.40;1.73;;;;;;;;;;5134150;27;20203;-81
2023/11/09 09:31:14;;;;;;;7.57;1.93;;;;;;;;;;5120417;27;20267;-82
2023/11/09 09:33:42;;;;;;;1.80;1.70;;;;;;;;;;5134276;27;20202;-82
2023/11/09 09:36:10;;;;;;;20.03;10.37;;;;;;;;;;5133928;27;20722;-82
2023/11/09 09:38:38;;;;;;;5.57;2.10;;;;;;;;;;5133718;27;20267;-81
2023/11/09 09:41:10;;;;;;;1.97;1.80;;;;;;;;;;5134252;27;20195;-81
2023/11/09 09:43:38;;;;;;;1.83;1.73;;;;;;;;;;5133677;27;20669;-81
2023/11/09 09:46:09;;;;;;;1.80;1.43;;;;;;;;;;5133296;27;20733;-81
2023/11/09 09:48:38;;;;;;;3.47;2.43;;;;;;;;;;5130737;27;20223;-81
2023/11/09 09:51:09;;;;;;;3.20;2.37;;;;;;;;;;5124060;27;20202;-81
2023/11/09 09:53:38;;;;;;;4.43;2.20;;;;;;;;;;5133622;27;20198;-82
2023/11/09 09:56:05;;;;;;;2.47;2.27;;;;;;;;;;5133380;27;20230;-82
2023/11/09 09:58:32;;;;;;;2.63;2.30;;;;;;;;;;5133687;27;20210;-82
2023/11/09 10:01:02;;;;;;;2.73;2.30;;;;;;;;;;5133453;27;20203;-82
2023/11/09 10:03:30;;;;;;;2.60;2.40;;;;;;;;;;5132908;27;20195;-82
2023/11/09 10:05:57;;;;;;;7.53;2.40;;;;;;;;;;5133732;27;20599;-82
2023/11/09 10:08:25;;;;;;;2.60;1.97;;;;;;;;;;5133067;27;20206;-82
2023/11/09 10:10:54;;;;;;;2.00;1.90;;;;;;;;;;5133372;27;20207;-81
2023/11/09 10:13:24;;;;;;;2.87;2.30;;;;;;;;;;5132821;27;20685;-82
2023/11/09 10:15:56;;;;;;;2.87;2.00;;;;;;;;;;5118543;27;20227;-82
2023/11/09 10:18:25;;;;;;;2.00;1.90;;;;;;;;;;5107896;27;20205;-83
2023/11/09 10:20:57;;;;;;;4.27;1.70;;;;;;;;;;5118012;27;20227;-82
2023/11/09 10:23:26;;;;;;;3.00;1.80;;;;;;;;;;5121377;27;20226;-81
2023/11/09 10:25:53;;;;;;;2.17;1.97;;;;;;;;;;5133040;27;20641;-82
2023/11/09 10:28:20;;;;;;;2.70;2.17;;;;;;;;;;5132846;27;20199;-82
2023/11/09 10:30:48;;;;;;;2.03;1.77;;;;;;;;;;5132523;27;20243;-82
2023/11/09 10:33:16;;;;;;;4.10;1.90;;;;;;;;;;5132909;27;20198;-82
2023/11/09 10:35:44;;;;;;;2.00;1.60;;;;;;;;;;5132633;27;20254;-82
2023/11/09 10:38:12;;;;;;;2.20;1.90;;;;;;;;;;5133344;27;20204;-82
2023/11/09 10:40:41;;;;;;;1.70;1.50;;;;;;;;;;5132480;27;20195;-82
2023/11/09 10:43:09;;;;;;;1.77;1.50;;;;;;;;;;5120814;27;20198;-83
2023/11/09 10:45:37;;;;;;;1.30;1.30;;;;;;;;;;5130240;27;20723;-82
2023/11/09 10:48:08;;;;;;;2.07;1.80;;;;;;;;;;5132905;27;20234;-82
2023/11/09 10:50:44;;;;;;;2.00;1.63;;;;;;;;;;5132160;27;20283;-83
2023/11/09 10:53:14;;;;;;;1.90;1.60;;;;;;;;;;5132174;27;20201;-82
2023/11/09 10:55:43;;;;;;;1.90;1.80;;;;;;;;;;5132082;27;20284;-82
2023/11/09 10:58:12;;;;;;;2.47;1.40;;;;;;;;;;5132680;27;20633;-82
2023/11/09 11:00:42;;;;;;;2.43;1.70;;;;;;;;;;5131833;27;20278;-83
2023/11/09 11:03:16;;;;;;;1.20;1.20;;;;;;;;;;5131401;27;20205;-83
2023/11/09 11:05:47;;;;;;;1.20;1.10;;;;;;;;;;5132380;27;20196;-82
2023/11/09 11:08:16;;;;;;;1.23;1.13;;;;;;;;;;5132591;27;20260;-83
2023/11/09 11:10:51;;;;;;;1.20;1.10;;;;;;;;;;5131633;27;20691;-82
2023/11/09 11:13:19;;;;;;;1.40;1.30;;;;;;;;;;5132067;27;20276;-82
2023/11/09 11:16:16;;;;;;;1.50;1.40;;;;;;;;;;5132401;27;20220;-83
2023/11/09 11:18:57;;;;;;;1.50;1.40;;;;;;;;;;5132169;27;20203;-82
2023/11/09 11:21:37;;;;;;;1.03;1.03;;;;;;;;;;5118388;27;20221;-82
2023/11/09 11:24:39;;;;;;;1.07;1.07;;;;;;;;;;5131392;27;20210;-83
2023/11/09 11:27:14;;;;;;;1.70;1.27;;;;;;;;;;5124293;27;20204;-82
2023/11/09 11:29:41;;;;;;;0.90;0.90;;;;;;;;;;5105728;27;20627;-82
2023/11/09 11:32:09;;;;;;;2.00;1.30;;;;;;;;;;5132035;27;20620;-83
2023/11/09 11:34:46;;;;;;;1.20;1.10;;;;;;;;;;5132183;27;20219;-83
2023/11/09 11:37:16;;;;;;;5.93;1.27;;;;;;;;;;5129711;27;20652;-83
2023/11/09 11:39:43;;;;;;;1.43;1.33;;;;;;;;;;5121767;27;20202;-83
2023/11/09 11:42:18;;;;;;;1.97;1.00;;;;;;;;;;5128310;27;20203;-83
2023/11/09 11:44:52;;;;;;;1.10;1.00;;;;;;;;;;5123012;27;20308;-83
2023/11/09 11:47:20;;;;;;;1.37;1.20;;;;;;;;;;5132003;27;20732;-83
2023/11/09 11:49:48;;;;;;;1.17;1.10;;;;;;;;;;5131195;27;20206;-83
2023/11/09 11:52:18;;;;;;;1.17;1.07;;;;;;;;;;5131795;27;20201;-83
2023/11/09 11:54:45;;;;;;;3.27;1.30;;;;;;;;;;5130949;28;20237;-84
2023/11/09 11:57:13;;;;;;;1.67;1.57;;;;;;;;;;5118884;28;20324;-83
2023/11/09 11:59:42;;;;;;;3.50;1.40;;;;;;;;;;5117522;28;20286;-83
2023/11/09 12:02:10;;;;;;;1.30;1.20;;;;;;;;;;5131905;28;20327;-84
2023/11/09 12:04:38;;;;;;;1.57;1.43;;;;;;;;;;5131330;28;20210;-83
2023/11/09 12:07:10;;;;;;;2.83;1.30;;;;;;;;;;5131747;28;20585;-83
2023/11/09 12:09:37;;;;;;;1.33;1.03;;;;;;;;;;5128904;28;20198;-82
2023/11/09 12:12:05;;;;;;;5.10;1.30;;;;;;;;;;5120234;28;20322;-83
2023/11/09 12:14:32;;;;;;;2.40;1.23;;;;;;;;;;5129110;28;20206;-83
2023/11/09 12:17:00;;;;;;;2.33;1.90;;;;;;;;;;5119979;28;20233;-83
2023/11/09 12:19:27;;;;;;;2.20;1.77;;;;;;;;;;5131444;28;20290;-84
2023/11/09 12:21:56;;;;;;;1.93;1.40;;;;;;;;;;5132190;28;20202;-83
2023/11/09 12:24:22;;;;;;;1.07;1.07;;;;;;;;;;5131237;28;20226;-83
2023/11/09 12:26:49;;;;;;;1.37;1.20;;;;;;;;;;5131128;28;20231;-83
2023/11/09 12:29:16;;;;;;;2.60;1.00;;;;;;;;;;5127383;28;20579;-84
2023/11/09 12:31:44;;;;;;;3.03;1.03;;;;;;;;;;5121544;28;20237;-83
2023/11/09 12:34:14;;;;;;;1.33;1.23;;;;;;;;;;5131009;28;20199;-82
2023/11/09 12:36:42;;;;;;;1.43;1.20;;;;;;;;;;5131277;27;20817;-83
2023/11/09 12:39:28;;;;;;;1.07;1.00;;;;;;;;;;5131763;27;20201;-83
2023/11/09 12:41:56;;;;;;;1.47;1.03;;;;;;;;;;5134957;27;20204;-83
2023/11/09 12:44:24;;;;;;;1.00;0.97;;;;;;;;;;5134674;27;20200;-83
2023/11/09 12:46:53;;;;;;;1.10;1.00;;;;;;;;;;5135159;27;20207;-83
2023/11/09 12:49:23;;;;;;;1.23;1.10;;;;;;;;;;5135225;27;20206;-83
2023/11/09 12:51:51;;;;;;;1.50;1.10;;;;;;;;;;5120611;27;20202;-83
2023/11/09 12:54:21;;;;;;;1.30;1.20;;;;;;;;;;5125391;27;20248;-83
2023/11/09 12:56:49;;;;;;;1.30;1.20;;;;;;;;;;5131296;27;20631;-83
2023/11/09 12:59:24;;;;;;;3.03;1.20;;;;;;;;;;5123713;27;20196;-83
2023/11/09 13:01:52;;;;;;;1.00;0.90;;;;;;;;;;5119275;27;20233;-83
2023/11/09 13:04:21;;;;;;;1.37;1.27;;;;;;;;;;5134782;27;20202;-83
2023/11/09 13:06:50;;;;;;;2.10;1.53;;;;;;;;;;5134052;27;20194;-83
2023/11/09 13:12:26;;;;;;;1.83;0.90;;;;;;;;;;5134522;27;20311;-83
2023/11/09 13:14:48;;;;;;;4.87;1.57;;;;;;;;;;5133992;27;20290;-83
2023/11/09 13:17:18;;;;;;;2.47;1.47;;;;;;;;;;5134612;27;20263;-82
2023/11/09 13:19:48;;;;;;;1.10;1.10;;;;;;;;;;5128383;27;20209;-83
2023/11/09 13:22:17;;;;;;;0.90;0.90;;;;;;;;;;5127392;27;20269;-83
2023/11/09 13:24:44;;;;;;;3.70;1.23;;;;;;;;;;5107033;27;20218;-83
2023/11/09 13:27:19;;;;;;;2.07;1.70;;;;;;;;;;5133783;27;20201;-84
2023/11/09 13:29:45;;;;;;;1.20;1.10;;;;;;;;;;5134350;27;20269;-83
2023/11/09 13:32:19;;;;;;;0.90;0.90;;;;;;;;;;5134160;27;20197;-83
2023/11/09 13:34:54;;;;;;;1.87;1.20;;;;;;;;;;5133858;27;20199;-83
2023/11/09 13:37:32;;;;;;;1.00;1.00;;;;;;;;;;5130246;27;20218;-83
2023/11/09 13:43:08;;;;;;;0.90;0.90;;;;;;;;;;5104516;27;1333306;-84
2023/11/09 13:45:36;;;;;;;1.37;0.97;;;;;;;;;;5123617;28;20287;-84
2023/11/09 13:48:09;;;;;;;1.47;1.03;;;;;;;;;;5108785;28;20225;-83
2023/11/09 13:50:41;;;;;;;1.10;1.00;;;;;;;;;;5108676;28;20196;-83
2023/11/09 13:53:29;;;;;;;2.30;1.30;;;;;;;;;;5122612;28;20627;-84
2023/11/09 13:56:22;;;;;;;4.73;2.40;;;;;;;;;;5108904;28;20265;-83
2023/11/09 13:58:53;;;;;;;1.43;1.33;;;;;;;;;;5115362;28;20571;-83
2023/11/09 14:01:27;;;;;;;1.17;0.90;;;;;;;;;;5128391;28;20218;-83
2023/11/09 14:03:54;;;;;;;0.80;0.80;;;;;;;;;;5129300;28;20214;-83
2023/11/09 14:06:21;;;;;;;1.00;1.00;;;;;;;;;;5113275;28;20211;-84
2023/11/09 14:08:50;;;;;;;1.20;1.10;;;;;;;;;;5108488;28;20204;-83
2023/11/09 14:11:22;;;;;;;1.47;1.37;;;;;;;;;;5124625;28;20274;-83
2023/11/09 14:13:52;;;;;;;5.53;1.80;;;;;;;;;;5128523;28;20202;-83
2023/11/09 14:16:22;;;;;;;1.33;1.23;;;;;;;;;;5128780;28;20222;-83
2023/11/09 14:18:58;;;;;;;3.53;1.80;;;;;;;;;;5117258;28;20287;-83
2023/11/09 14:21:24;;;;;;;6.33;4.53;;;;;;;;;;5113893;28;20221;-83
2023/11/09 14:23:52;;;;;;;7.60;4.57;;;;;;;;;;5128218;28;20673;-83
2023/11/09 14:26:21;;;;;;;9.07;5.67;;;;;;;;;;5121712;28;20196;-84
2023/11/09 14:28:51;;;;;;;28.67;13.57;;;;;;;;;;5108166;28;20207;-83
2023/11/09 14:31:19;;;;;;;8.23;3.57;;;;;;;;;;5128079;28;20199;-83
2023/11/09 14:33:47;;;;;;;4.63;3.20;;;;;;;;;;5114160;28;20206;-84
2023/11/09 14:36:15;;;;;;;11.93;7.20;;;;;;;;;;5119976;28;20196;-83
2023/11/09 14:38:48;;;;;;;4.27;3.20;;;;;;;;;;5122530;28;20199;-84
2023/11/09 14:41:16;;;;;;;3.47;3.10;;;;;;;;;;5118581;28;20327;-84
2023/11/09 14:43:43;;;;;;;6.07;4.27;;;;;;;;;;5123696;28;20207;-82
2023/11/09 14:46:17;;;;;;;3.90;2.30;;;;;;;;;;5128058;28;20601;-83
2023/11/09 14:48:45;;;;;;;13.83;8.47;;;;;;;;;;5113814;28;20218;-83
2023/11/09 14:51:21;;;;;;;25.53;17.27;;;;;;;;;;5116915;28;20207;-84
2023/11/09 14:53:49;;;;;;;12.03;8.27;;;;;;;;;;5096666;28;20565;-83
2023/11/09 14:56:18;;;;;;;7.03;5.00;;;;;;;;;;5093896;28;20246;-83
2023/11/09 14:58:46;;;;;;;4.50;3.30;;;;;;;;;;5107014;28;21409;-83
2023/11/09 15:01:15;;;;;;;4.73;4.00;;;;;;;;;;5106789;28;20220;-83
2023/11/09 15:03:45;;;;;;;80.43;51.43;;;;;;;;;;5100453;28;20268;-82
2023/11/09 15:06:13;;;;;;;93.73;63.03;;;;;;;;;;5112952;28;20741;-83